sensor_id;sensor_type;location;lat;lon;timestamp;P1;durP1;ratioP1;P2;durP2;ratioP2
31308;SDS011;17936;52.446;10.840;2022-07-06T00:01:47;4.25;;;1.02;;
31308;SDS011;17936;52.446;10.840;2022-07-06T00:04:13;4.88;;;1.10;;
31308;SDS011;17936;52.446;10.840;2022-07-06T00:06:39;3.78;;;0.93;;
31308;SDS011;17936;52.446;10.840;2022-07-06T00:09:04;3.20;;;0.90;;
31308;SDS011;17936;52.446;10.840;2022-07-06T00:11:31;4.10;;;1.02;;
31308;SDS011;17936;52.446;10.840;2022-07-06T00:13:57;3.70;;;0.80;;
31308;SDS011;17936;52.446;10.840;2022-07-06T00:16:23;4.47;;;0.95;;
31308;SDS011;17936;52.446;10.840;2022-07-06T00:18:48;3.25;;;0.80;;
31308;SDS011;17936;52.446;10.840;2022-07-06T00:21:14;8.07;;;0.90;;
31308;SDS011;17936;52.446;10.840;2022-07-06T00:23:39;5.32;;;1.13;;
31308;SDS011;17936;52.446;10.840;2022-07-06T00:26:05;3.55;;;0.85;;
31308;SDS011;17936;52.446;10.840;2022-07-06T00:28:31;2.92;;;0.60;;
31308;SDS011;17936;52.446;10.840;2022-07-06T00:30:56;8.90;;;1.20;;
31308;SDS011;17936;52.446;10.840;2022-07-06T00:33:24;3.95;;;0.88;;
31308;SDS011;17936;52.446;10.840;2022-07-06T00:35:49;2.08;;;0.70;;
31308;SDS011;17936;52.446;10.840;2022-07-06T00:38:15;3.92;;;0.93;;
31308;SDS011;17936;52.446;10.840;2022-07-06T00:40:40;1.90;;;0.80;;
31308;SDS011;17936;52.446;10.840;2022-07-06T00:43:08;5.00;;;0.90;;
31308;SDS011;17936;52.446;10.840;2022-07-06T00:45:33;3.85;;;1.05;;
31308;SDS011;17936;52.446;10.840;2022-07-06T00:47:59;7.13;;;1.00;;
31308;SDS011;17936;52.446;10.840;2022-07-06T00:50:25;5.25;;;0.90;;
31308;SDS011;17936;52.446;10.840;2022-07-06T00:52:54;8.35;;;1.30;;
31308;SDS011;17936;52.446;10.840;2022-07-06T00:55:23;6.75;;;0.93;;
31308;SDS011;17936;52.446;10.840;2022-07-06T00:57:53;3.90;;;0.98;;
31308;SDS011;17936;52.446;10.840;2022-07-06T01:00:20;3.28;;;0.90;;
31308;SDS011;17936;52.446;10.840;2022-07-06T01:02:48;3.53;;;0.80;;
31308;SDS011;17936;52.446;10.840;2022-07-06T01:05:15;4.22;;;0.88;;
31308;SDS011;17936;52.446;10.840;2022-07-06T01:07:44;9.30;;;1.13;;
31308;SDS011;17936;52.446;10.840;2022-07-06T01:10:12;7.15;;;0.90;;
31308;SDS011;17936;52.446;10.840;2022-07-06T01:12:40;3.50;;;1.10;;
31308;SDS011;17936;52.446;10.840;2022-07-06T01:15:08;2.92;;;1.00;;
31308;SDS011;17936;52.446;10.840;2022-07-06T01:17:35;7.57;;;1.13;;
31308;SDS011;17936;52.446;10.840;2022-07-06T01:20:15;1.92;;;0.90;;
31308;SDS011;17936;52.446;10.840;2022-07-06T01:22:46;2.40;;;0.85;;
31308;SDS011;17936;52.446;10.840;2022-07-06T01:25:12;6.25;;;1.15;;
31308;SDS011;17936;52.446;10.840;2022-07-06T01:27:39;7.07;;;0.90;;
31308;SDS011;17936;52.446;10.840;2022-07-06T01:30:06;4.32;;;0.98;;
31308;SDS011;17936;52.446;10.840;2022-07-06T01:32:33;2.58;;;1.10;;
31308;SDS011;17936;52.446;10.840;2022-07-06T01:34:59;1.27;;;0.70;;
31308;SDS011;17936;52.446;10.840;2022-07-06T01:37:25;3.40;;;0.80;;
31308;SDS011;17936;52.446;10.840;2022-07-06T01:39:51;6.57;;;0.98;;
31308;SDS011;17936;52.446;10.840;2022-07-06T01:42:16;2.05;;;0.88;;
31308;SDS011;17936;52.446;10.840;2022-07-06T01:44:42;3.45;;;1.05;;
31308;SDS011;17936;52.446;10.840;2022-07-06T01:47:09;4.43;;;0.80;;
31308;SDS011;17936;52.446;10.840;2022-07-06T01:49:35;4.15;;;0.85;;
31308;SDS011;17936;52.446;10.840;2022-07-06T01:52:00;2.97;;;0.93;;
31308;SDS011;17936;52.446;10.840;2022-07-06T01:54:26;5.55;;;1.33;;
31308;SDS011;17936;52.446;10.840;2022-07-06T01:56:52;2.00;;;0.90;;
31308;SDS011;17936;52.446;10.840;2022-07-06T01:59:17;2.45;;;0.90;;
31308;SDS011;17936;52.446;10.840;2022-07-06T02:01:43;6.40;;;1.77;;
31308;SDS011;17936;52.446;10.840;2022-07-06T02:04:08;4.82;;;0.98;;
31308;SDS011;17936;52.446;10.840;2022-07-06T02:06:34;4.97;;;0.90;;
31308;SDS011;17936;52.446;10.840;2022-07-06T02:08:59;5.28;;;1.10;;
31308;SDS011;17936;52.446;10.840;2022-07-06T02:11:25;4.05;;;1.20;;
31308;SDS011;17936;52.446;10.840;2022-07-06T02:13:50;2.90;;;1.10;;
31308;SDS011;17936;52.446;10.840;2022-07-06T02:16:16;6.57;;;1.20;;
31308;SDS011;17936;52.446;10.840;2022-07-06T02:18:41;3.92;;;1.08;;
31308;SDS011;17936;52.446;10.840;2022-07-06T02:21:07;4.35;;;0.95;;
31308;SDS011;17936;52.446;10.840;2022-07-06T02:23:32;3.53;;;1.15;;
31308;SDS011;17936;52.446;10.840;2022-07-06T02:25:58;4.90;;;1.17;;
31308;SDS011;17936;52.446;10.840;2022-07-06T02:28:23;3.67;;;1.40;;
31308;SDS011;17936;52.446;10.840;2022-07-06T02:30:49;3.58;;;1.02;;
31308;SDS011;17936;52.446;10.840;2022-07-06T02:33:14;3.58;;;1.05;;
31308;SDS011;17936;52.446;10.840;2022-07-06T02:35:40;4.57;;;0.98;;
31308;SDS011;17936;52.446;10.840;2022-07-06T02:38:08;8.57;;;1.15;;
31308;SDS011;17936;52.446;10.840;2022-07-06T02:40:33;3.63;;;0.90;;
31308;SDS011;17936;52.446;10.840;2022-07-06T02:42:59;5.93;;;1.00;;
31308;SDS011;17936;52.446;10.840;2022-07-06T02:45:24;2.40;;;1.00;;
31308;SDS011;17936;52.446;10.840;2022-07-06T02:47:50;3.58;;;1.00;;
31308;SDS011;17936;52.446;10.840;2022-07-06T02:50:16;2.40;;;0.80;;
31308;SDS011;17936;52.446;10.840;2022-07-06T02:52:42;4.28;;;1.00;;
31308;SDS011;17936;52.446;10.840;2022-07-06T02:55:07;7.93;;;1.10;;
31308;SDS011;17936;52.446;10.840;2022-07-06T02:57:33;4.30;;;0.88;;
31308;SDS011;17936;52.446;10.840;2022-07-06T02:59:58;6.15;;;1.08;;
31308;SDS011;17936;52.446;10.840;2022-07-06T03:02:24;1.60;;;1.00;;
31308;SDS011;17936;52.446;10.840;2022-07-06T03:04:49;3.75;;;0.98;;
31308;SDS011;17936;52.446;10.840;2022-07-06T03:07:15;7.60;;;1.15;;
31308;SDS011;17936;52.446;10.840;2022-07-06T03:09:41;4.93;;;1.13;;
31308;SDS011;17936;52.446;10.840;2022-07-06T03:12:06;3.47;;;0.80;;
31308;SDS011;17936;52.446;10.840;2022-07-06T03:14:32;0.93;;;0.60;;
31308;SDS011;17936;52.446;10.840;2022-07-06T03:16:58;6.85;;;0.80;;
31308;SDS011;17936;52.446;10.840;2022-07-06T03:19:23;2.65;;;1.10;;
31308;SDS011;17936;52.446;10.840;2022-07-06T03:21:48;6.28;;;1.45;;
31308;SDS011;17936;52.446;10.840;2022-07-06T03:24:14;5.47;;;0.82;;
31308;SDS011;17936;52.446;10.840;2022-07-06T03:26:39;5.18;;;1.08;;
31308;SDS011;17936;52.446;10.840;2022-07-06T03:29:05;3.80;;;1.10;;
31308;SDS011;17936;52.446;10.840;2022-07-06T03:31:30;3.45;;;1.00;;
31308;SDS011;17936;52.446;10.840;2022-07-06T03:33:56;4.45;;;1.15;;
31308;SDS011;17936;52.446;10.840;2022-07-06T03:36:21;5.95;;;0.88;;
31308;SDS011;17936;52.446;10.840;2022-07-06T03:38:47;3.90;;;1.00;;
31308;SDS011;17936;52.446;10.840;2022-07-06T03:41:12;5.47;;;1.23;;
31308;SDS011;17936;52.446;10.840;2022-07-06T03:43:38;2.97;;;0.80;;
31308;SDS011;17936;52.446;10.840;2022-07-06T03:46:03;6.70;;;1.08;;
31308;SDS011;17936;52.446;10.840;2022-07-06T03:48:29;4.57;;;1.20;;
31308;SDS011;17936;52.446;10.840;2022-07-06T03:50:55;2.00;;;1.15;;
31308;SDS011;17936;52.446;10.840;2022-07-06T03:53:20;4.07;;;1.00;;
31308;SDS011;17936;52.446;10.840;2022-07-06T03:55:46;4.82;;;1.10;;
31308;SDS011;17936;52.446;10.840;2022-07-06T03:58:32;2.63;;;1.10;;
31308;SDS011;17936;52.446;10.840;2022-07-06T04:00:57;3.63;;;0.90;;
31308;SDS011;17936;52.446;10.840;2022-07-06T04:03:23;2.58;;;0.75;;
31308;SDS011;17936;52.446;10.840;2022-07-06T04:05:48;3.42;;;1.02;;
31308;SDS011;17936;52.446;10.840;2022-07-06T04:08:14;4.05;;;1.10;;
31308;SDS011;17936;52.446;10.840;2022-07-06T04:10:39;7.10;;;1.15;;
31308;SDS011;17936;52.446;10.840;2022-07-06T04:13:05;6.25;;;1.38;;
31308;SDS011;17936;52.446;10.840;2022-07-06T04:15:30;5.22;;;1.05;;
31308;SDS011;17936;52.446;10.840;2022-07-06T04:17:56;5.40;;;1.25;;
31308;SDS011;17936;52.446;10.840;2022-07-06T04:20:22;5.63;;;1.10;;
31308;SDS011;17936;52.446;10.840;2022-07-06T04:22:48;4.10;;;0.88;;
31308;SDS011;17936;52.446;10.840;2022-07-06T04:25:15;5.38;;;1.33;;
31308;SDS011;17936;52.446;10.840;2022-07-06T04:27:41;1.88;;;1.00;;
31308;SDS011;17936;52.446;10.840;2022-07-06T04:30:07;4.32;;;0.90;;
31308;SDS011;17936;52.446;10.840;2022-07-06T04:32:33;6.70;;;1.08;;
31308;SDS011;17936;52.446;10.840;2022-07-06T04:34:59;5.07;;;0.98;;
31308;SDS011;17936;52.446;10.840;2022-07-06T04:37:25;3.33;;;0.90;;
31308;SDS011;17936;52.446;10.840;2022-07-06T04:39:51;5.05;;;0.88;;
31308;SDS011;17936;52.446;10.840;2022-07-06T04:42:16;4.45;;;1.27;;
31308;SDS011;17936;52.446;10.840;2022-07-06T04:44:42;5.75;;;0.93;;
31308;SDS011;17936;52.446;10.840;2022-07-06T04:47:07;4.00;;;1.10;;
31308;SDS011;17936;52.446;10.840;2022-07-06T04:49:33;8.88;;;1.20;;
31308;SDS011;17936;52.446;10.840;2022-07-06T04:51:58;5.40;;;1.00;;
31308;SDS011;17936;52.446;10.840;2022-07-06T04:54:24;5.43;;;1.00;;
31308;SDS011;17936;52.446;10.840;2022-07-06T04:56:49;2.63;;;1.02;;
31308;SDS011;17936;52.446;10.840;2022-07-06T04:59:15;4.10;;;1.20;;
31308;SDS011;17936;52.446;10.840;2022-07-06T05:01:41;2.45;;;1.13;;
31308;SDS011;17936;52.446;10.840;2022-07-06T05:04:07;6.10;;;1.10;;
31308;SDS011;17936;52.446;10.840;2022-07-06T05:06:32;6.85;;;1.50;;
31308;SDS011;17936;52.446;10.840;2022-07-06T05:08:58;3.25;;;1.10;;
31308;SDS011;17936;52.446;10.840;2022-07-06T05:11:27;4.57;;;1.25;;
31308;SDS011;17936;52.446;10.840;2022-07-06T05:13:53;4.75;;;1.20;;
31308;SDS011;17936;52.446;10.840;2022-07-06T05:16:19;5.95;;;0.90;;
31308;SDS011;17936;52.446;10.840;2022-07-06T05:18:45;3.67;;;0.90;;
31308;SDS011;17936;52.446;10.840;2022-07-06T05:21:10;6.50;;;1.65;;
31308;SDS011;17936;52.446;10.840;2022-07-06T05:23:36;4.35;;;1.23;;
31308;SDS011;17936;52.446;10.840;2022-07-06T05:26:01;4.75;;;1.00;;
31308;SDS011;17936;52.446;10.840;2022-07-06T05:28:27;6.00;;;1.08;;
31308;SDS011;17936;52.446;10.840;2022-07-06T05:30:52;4.60;;;1.05;;
31308;SDS011;17936;52.446;10.840;2022-07-06T05:33:18;4.00;;;1.20;;
31308;SDS011;17936;52.446;10.840;2022-07-06T05:35:43;5.65;;;1.05;;
31308;SDS011;17936;52.446;10.840;2022-07-06T05:38:09;5.97;;;1.08;;
31308;SDS011;17936;52.446;10.840;2022-07-06T05:40:35;15.38;;;1.08;;
31308;SDS011;17936;52.446;10.840;2022-07-06T05:43:01;1.45;;;0.70;;
31308;SDS011;17936;52.446;10.840;2022-07-06T05:45:26;2.97;;;1.15;;
31308;SDS011;17936;52.446;10.840;2022-07-06T05:47:52;3.17;;;1.13;;
31308;SDS011;17936;52.446;10.840;2022-07-06T05:50:36;4.93;;;0.98;;
31308;SDS011;17936;52.446;10.840;2022-07-06T05:53:02;5.63;;;0.77;;
31308;SDS011;17936;52.446;10.840;2022-07-06T05:55:29;4.10;;;0.98;;
31308;SDS011;17936;52.446;10.840;2022-07-06T05:57:55;5.00;;;0.90;;
31308;SDS011;17936;52.446;10.840;2022-07-06T06:00:24;4.53;;;1.00;;
31308;SDS011;17936;52.446;10.840;2022-07-06T06:02:51;6.15;;;0.98;;
31308;SDS011;17936;52.446;10.840;2022-07-06T06:05:17;3.40;;;0.90;;
31308;SDS011;17936;52.446;10.840;2022-07-06T06:07:43;5.60;;;0.77;;
31308;SDS011;17936;52.446;10.840;2022-07-06T06:10:11;3.35;;;0.80;;
31308;SDS011;17936;52.446;10.840;2022-07-06T06:12:38;6.32;;;1.30;;
31308;SDS011;17936;52.446;10.840;2022-07-06T06:15:04;7.88;;;1.00;;
31308;SDS011;17936;52.446;10.840;2022-07-06T06:17:31;7.50;;;1.13;;
31308;SDS011;17936;52.446;10.840;2022-07-06T06:19:57;3.03;;;0.77;;
31308;SDS011;17936;52.446;10.840;2022-07-06T06:22:23;7.88;;;1.20;;
31308;SDS011;17936;52.446;10.840;2022-07-06T06:24:49;4.97;;;0.90;;
31308;SDS011;17936;52.446;10.840;2022-07-06T06:27:15;6.47;;;0.90;;
31308;SDS011;17936;52.446;10.840;2022-07-06T06:29:40;3.67;;;0.80;;
31308;SDS011;17936;52.446;10.840;2022-07-06T06:32:06;3.08;;;0.82;;
31308;SDS011;17936;52.446;10.840;2022-07-06T06:34:32;6.03;;;1.00;;
31308;SDS011;17936;52.446;10.840;2022-07-06T06:36:58;4.85;;;0.80;;
31308;SDS011;17936;52.446;10.840;2022-07-06T06:39:23;4.45;;;0.70;;
31308;SDS011;17936;52.446;10.840;2022-07-06T06:41:50;4.15;;;0.80;;
31308;SDS011;17936;52.446;10.840;2022-07-06T06:44:15;3.65;;;0.70;;
31308;SDS011;17936;52.446;10.840;2022-07-06T06:46:42;4.03;;;0.60;;
31308;SDS011;17936;52.446;10.840;2022-07-06T06:49:08;1.90;;;0.57;;
31308;SDS011;17936;52.446;10.840;2022-07-06T06:51:34;5.65;;;0.63;;
31308;SDS011;17936;52.446;10.840;2022-07-06T06:53:59;3.13;;;0.80;;
31308;SDS011;17936;52.446;10.840;2022-07-06T06:56:25;2.13;;;0.70;;
31308;SDS011;17936;52.446;10.840;2022-07-06T06:58:51;3.50;;;1.02;;
31308;SDS011;17936;52.446;10.840;2022-07-06T07:01:16;7.10;;;1.20;;
31308;SDS011;17936;52.446;10.840;2022-07-06T07:03:42;2.65;;;0.90;;
31308;SDS011;17936;52.446;10.840;2022-07-06T07:06:07;7.75;;;0.75;;
31308;SDS011;17936;52.446;10.840;2022-07-06T07:08:33;2.38;;;0.68;;
31308;SDS011;17936;52.446;10.840;2022-07-06T07:10:58;3.15;;;0.63;;
31308;SDS011;17936;52.446;10.840;2022-07-06T07:13:24;1.60;;;0.45;;
31308;SDS011;17936;52.446;10.840;2022-07-06T07:15:49;3.95;;;0.70;;
31308;SDS011;17936;52.446;10.840;2022-07-06T07:18:15;8.00;;;1.20;;
31308;SDS011;17936;52.446;10.840;2022-07-06T07:20:41;4.05;;;0.80;;
31308;SDS011;17936;52.446;10.840;2022-07-06T07:23:06;1.23;;;0.60;;
31308;SDS011;17936;52.446;10.840;2022-07-06T07:25:32;3.30;;;0.88;;
31308;SDS011;17936;52.446;10.840;2022-07-06T07:27:57;3.92;;;0.90;;
31308;SDS011;17936;52.446;10.840;2022-07-06T07:30:23;4.50;;;0.88;;
31308;SDS011;17936;52.446;10.840;2022-07-06T07:32:48;5.10;;;1.02;;
31308;SDS011;17936;52.446;10.840;2022-07-06T07:35:14;2.97;;;0.73;;
31308;SDS011;17936;52.446;10.840;2022-07-06T07:37:40;6.57;;;0.95;;
31308;SDS011;17936;52.446;10.840;2022-07-06T07:40:05;8.55;;;0.90;;
31308;SDS011;17936;52.446;10.840;2022-07-06T07:42:32;6.15;;;0.77;;
31308;SDS011;17936;52.446;10.840;2022-07-06T07:44:57;3.95;;;0.95;;
31308;SDS011;17936;52.446;10.840;2022-07-06T07:47:23;5.43;;;0.80;;
31308;SDS011;17936;52.446;10.840;2022-07-06T07:49:48;5.20;;;0.85;;
31308;SDS011;17936;52.446;10.840;2022-07-06T07:52:14;6.38;;;0.88;;
31308;SDS011;17936;52.446;10.840;2022-07-06T07:54:39;6.50;;;0.70;;
31308;SDS011;17936;52.446;10.840;2022-07-06T07:57:05;5.32;;;0.65;;
31308;SDS011;17936;52.446;10.840;2022-07-06T07:59:30;2.53;;;0.60;;
31308;SDS011;17936;52.446;10.840;2022-07-06T08:01:56;2.58;;;0.65;;
31308;SDS011;17936;52.446;10.840;2022-07-06T08:04:22;4.55;;;0.70;;
31308;SDS011;17936;52.446;10.840;2022-07-06T08:06:47;1.77;;;0.60;;
31308;SDS011;17936;52.446;10.840;2022-07-06T08:09:13;4.35;;;0.63;;
31308;SDS011;17936;52.446;10.840;2022-07-06T08:11:41;2.67;;;0.85;;
31308;SDS011;17936;52.446;10.840;2022-07-06T08:14:07;4.03;;;1.02;;
31308;SDS011;17936;52.446;10.840;2022-07-06T08:16:33;3.60;;;0.55;;
31308;SDS011;17936;52.446;10.840;2022-07-06T08:18:58;4.65;;;0.70;;
31308;SDS011;17936;52.446;10.840;2022-07-06T08:21:24;2.25;;;0.43;;
31308;SDS011;17936;52.446;10.840;2022-07-06T08:23:50;8.32;;;0.90;;
31308;SDS011;17936;52.446;10.840;2022-07-06T08:26:15;2.90;;;0.50;;
31308;SDS011;17936;52.446;10.840;2022-07-06T08:28:41;3.58;;;0.50;;
31308;SDS011;17936;52.446;10.840;2022-07-06T08:31:06;3.70;;;0.75;;
31308;SDS011;17936;52.446;10.840;2022-07-06T08:33:32;8.73;;;1.35;;
31308;SDS011;17936;52.446;10.840;2022-07-06T08:35:57;2.65;;;0.80;;
31308;SDS011;17936;52.446;10.840;2022-07-06T08:38:23;7.97;;;0.85;;
31308;SDS011;17936;52.446;10.840;2022-07-06T08:40:49;3.22;;;0.55;;
31308;SDS011;17936;52.446;10.840;2022-07-06T08:43:16;4.60;;;0.60;;
31308;SDS011;17936;52.446;10.840;2022-07-06T08:45:42;6.85;;;0.77;;
31308;SDS011;17936;52.446;10.840;2022-07-06T08:48:09;3.55;;;0.60;;
31308;SDS011;17936;52.446;10.840;2022-07-06T08:50:36;2.90;;;0.70;;
31308;SDS011;17936;52.446;10.840;2022-07-06T08:53:03;5.80;;;0.80;;
31308;SDS011;17936;52.446;10.840;2022-07-06T08:55:29;5.35;;;0.70;;
31308;SDS011;17936;52.446;10.840;2022-07-06T08:57:55;2.92;;;0.57;;
31308;SDS011;17936;52.446;10.840;2022-07-06T09:00:22;3.90;;;0.60;;
31308;SDS011;17936;52.446;10.840;2022-07-06T09:02:49;3.53;;;0.60;;
31308;SDS011;17936;52.446;10.840;2022-07-06T09:05:18;2.38;;;0.55;;
31308;SDS011;17936;52.446;10.840;2022-07-06T09:07:48;4.10;;;0.73;;
31308;SDS011;17936;52.446;10.840;2022-07-06T09:10:17;3.95;;;0.68;;
31308;SDS011;17936;52.446;10.840;2022-07-06T09:12:44;3.75;;;0.47;;
31308;SDS011;17936;52.446;10.840;2022-07-06T09:15:10;3.55;;;0.70;;
31308;SDS011;17936;52.446;10.840;2022-07-06T09:17:39;3.65;;;0.73;;
31308;SDS011;17936;52.446;10.840;2022-07-06T09:20:09;1.45;;;0.45;;
31308;SDS011;17936;52.446;10.840;2022-07-06T09:22:36;2.25;;;0.30;;
31308;SDS011;17936;52.446;10.840;2022-07-06T09:25:06;2.20;;;0.85;;
31308;SDS011;17936;52.446;10.840;2022-07-06T09:27:37;4.57;;;0.50;;
31308;SDS011;17936;52.446;10.840;2022-07-06T09:30:05;4.10;;;0.85;;
31308;SDS011;17936;52.446;10.840;2022-07-06T09:32:32;5.05;;;0.50;;
31308;SDS011;17936;52.446;10.840;2022-07-06T09:35:04;2.67;;;0.60;;
31308;SDS011;17936;52.446;10.840;2022-07-06T09:37:30;3.33;;;0.70;;
31308;SDS011;17936;52.446;10.840;2022-07-06T09:39:55;1.80;;;0.30;;
31308;SDS011;17936;52.446;10.840;2022-07-06T09:42:24;2.40;;;0.50;;
31308;SDS011;17936;52.446;10.840;2022-07-06T09:44:51;2.85;;;0.50;;
31308;SDS011;17936;52.446;10.840;2022-07-06T09:47:17;1.55;;;0.63;;
31308;SDS011;17936;52.446;10.840;2022-07-06T09:49:44;3.13;;;0.63;;
31308;SDS011;17936;52.446;10.840;2022-07-06T09:52:11;2.67;;;0.57;;
31308;SDS011;17936;52.446;10.840;2022-07-06T09:54:37;2.58;;;0.45;;
31308;SDS011;17936;52.446;10.840;2022-07-06T09:57:05;2.85;;;0.57;;
31308;SDS011;17936;52.446;10.840;2022-07-06T09:59:31;6.80;;;0.73;;
31308;SDS011;17936;52.446;10.840;2022-07-06T10:01:59;3.75;;;0.50;;
31308;SDS011;17936;52.446;10.840;2022-07-06T10:04:26;1.30;;;0.35;;
31308;SDS011;17936;52.446;10.840;2022-07-06T10:06:53;1.65;;;0.60;;
31308;SDS011;17936;52.446;10.840;2022-07-06T10:09:21;2.45;;;0.35;;
31308;SDS011;17936;52.446;10.840;2022-07-06T10:11:53;1.65;;;0.30;;
31308;SDS011;17936;52.446;10.840;2022-07-06T10:14:26;0.85;;;0.40;;
31308;SDS011;17936;52.446;10.840;2022-07-06T10:16:56;4.65;;;0.68;;
31308;SDS011;17936;52.446;10.840;2022-07-06T10:19:23;4.88;;;0.60;;
31308;SDS011;17936;52.446;10.840;2022-07-06T10:21:49;1.02;;;0.47;;
31308;SDS011;17936;52.446;10.840;2022-07-06T10:24:21;2.20;;;0.47;;
31308;SDS011;17936;52.446;10.840;2022-07-06T10:26:47;5.03;;;0.35;;
31308;SDS011;17936;52.446;10.840;2022-07-06T10:29:14;0.65;;;0.20;;
31308;SDS011;17936;52.446;10.840;2022-07-06T10:31:40;3.10;;;0.50;;
31308;SDS011;17936;52.446;10.840;2022-07-06T10:34:10;2.60;;;0.50;;
31308;SDS011;17936;52.446;10.840;2022-07-06T10:36:41;2.53;;;0.35;;
31308;SDS011;17936;52.446;10.840;2022-07-06T10:39:09;4.53;;;0.38;;
31308;SDS011;17936;52.446;10.840;2022-07-06T10:41:54;3.25;;;0.57;;
31308;SDS011;17936;52.446;10.840;2022-07-06T10:44:21;0.32;;;0.30;;
31308;SDS011;17936;52.446;10.840;2022-07-06T10:46:55;1.23;;;0.40;;
31308;SDS011;17936;52.446;10.840;2022-07-06T10:49:24;1.38;;;0.50;;
31308;SDS011;17936;52.446;10.840;2022-07-06T10:51:51;2.03;;;0.63;;
31308;SDS011;17936;52.446;10.840;2022-07-06T10:54:17;3.17;;;0.60;;
31308;SDS011;17936;52.446;10.840;2022-07-06T10:56:46;2.72;;;0.63;;
31308;SDS011;17936;52.446;10.840;2022-07-06T10:59:13;1.70;;;0.30;;
31308;SDS011;17936;52.446;10.840;2022-07-06T11:01:40;1.38;;;0.40;;
31308;SDS011;17936;52.446;10.840;2022-07-06T11:04:30;2.40;;;0.63;;
31308;SDS011;17936;52.446;10.840;2022-07-06T11:06:56;3.00;;;0.40;;
31308;SDS011;17936;52.446;10.840;2022-07-06T11:09:33;1.25;;;0.60;;
31308;SDS011;17936;52.446;10.840;2022-07-06T11:12:10;1.10;;;0.25;;
31308;SDS011;17936;52.446;10.840;2022-07-06T11:14:37;4.45;;;0.57;;
31308;SDS011;17936;52.446;10.840;2022-07-06T11:17:04;4.32;;;0.52;;
31308;SDS011;17936;52.446;10.840;2022-07-06T11:19:30;4.32;;;0.82;;
31308;SDS011;17936;52.446;10.840;2022-07-06T11:21:57;4.22;;;0.45;;
31308;SDS011;17936;52.446;10.840;2022-07-06T11:24:30;0.98;;;0.28;;
31308;SDS011;17936;52.446;10.840;2022-07-06T11:26:57;1.58;;;0.52;;
31308;SDS011;17936;52.446;10.840;2022-07-06T11:29:24;5.22;;;0.57;;
31308;SDS011;17936;52.446;10.840;2022-07-06T11:34:25;3.45;;;0.63;;
31308;SDS011;17936;52.446;10.840;2022-07-06T11:36:55;3.25;;;0.57;;
31308;SDS011;17936;52.446;10.840;2022-07-06T11:39:21;8.20;;;0.77;;
31308;SDS011;17936;52.446;10.840;2022-07-06T11:41:47;5.45;;;0.90;;
31308;SDS011;17936;52.446;10.840;2022-07-06T11:44:12;1.50;;;0.47;;
31308;SDS011;17936;52.446;10.840;2022-07-06T11:46:38;3.85;;;0.60;;
31308;SDS011;17936;52.446;10.840;2022-07-06T11:49:07;2.28;;;0.50;;
31308;SDS011;17936;52.446;10.840;2022-07-06T11:51:37;4.30;;;0.80;;
31308;SDS011;17936;52.446;10.840;2022-07-06T11:54:25;3.00;;;0.35;;
31308;SDS011;17936;52.446;10.840;2022-07-06T11:56:51;1.77;;;0.40;;
31308;SDS011;17936;52.446;10.840;2022-07-06T11:59:23;4.53;;;0.68;;
31308;SDS011;17936;52.446;10.840;2022-07-06T12:01:57;2.92;;;0.35;;
31308;SDS011;17936;52.446;10.840;2022-07-06T12:04:24;2.35;;;0.45;;
31308;SDS011;17936;52.446;10.840;2022-07-06T12:06:49;3.00;;;0.70;;
31308;SDS011;17936;52.446;10.840;2022-07-06T12:09:17;6.97;;;1.20;;
31308;SDS011;17936;52.446;10.840;2022-07-06T12:11:45;2.10;;;0.43;;
31308;SDS011;17936;52.446;10.840;2022-07-06T12:14:16;2.10;;;0.50;;
31308;SDS011;17936;52.446;10.840;2022-07-06T12:16:42;5.85;;;0.40;;
31308;SDS011;17936;52.446;10.840;2022-07-06T12:19:08;1.80;;;0.43;;
31308;SDS011;17936;52.446;10.840;2022-07-06T12:21:36;10.50;;;0.63;;
31308;SDS011;17936;52.446;10.840;2022-07-06T12:24:07;2.90;;;0.50;;
31308;SDS011;17936;52.446;10.840;2022-07-06T12:26:38;1.80;;;0.57;;
31308;SDS011;17936;52.446;10.840;2022-07-06T12:29:09;2.95;;;0.80;;
31308;SDS011;17936;52.446;10.840;2022-07-06T12:31:38;4.80;;;0.93;;
31308;SDS011;17936;52.446;10.840;2022-07-06T12:34:11;5.40;;;0.50;;
31308;SDS011;17936;52.446;10.840;2022-07-06T12:36:54;2.05;;;0.52;;
31308;SDS011;17936;52.446;10.840;2022-07-06T12:39:22;2.13;;;0.63;;
31308;SDS011;17936;52.446;10.840;2022-07-06T12:41:50;3.90;;;0.50;;
31308;SDS011;17936;52.446;10.840;2022-07-06T12:44:29;1.27;;;0.30;;
31308;SDS011;17936;52.446;10.840;2022-07-06T12:47:02;3.03;;;0.60;;
31308;SDS011;17936;52.446;10.840;2022-07-06T12:49:30;2.13;;;0.45;;
31308;SDS011;17936;52.446;10.840;2022-07-06T12:52:08;3.95;;;0.70;;
31308;SDS011;17936;52.446;10.840;2022-07-06T12:54:50;4.85;;;0.77;;
31308;SDS011;17936;52.446;10.840;2022-07-06T12:57:18;4.15;;;0.70;;
31308;SDS011;17936;52.446;10.840;2022-07-06T12:59:44;6.00;;;1.48;;
31308;SDS011;17936;52.446;10.840;2022-07-06T13:02:22;2.58;;;0.40;;
31308;SDS011;17936;52.446;10.840;2022-07-06T13:05:01;1.95;;;0.55;;
31308;SDS011;17936;52.446;10.840;2022-07-06T13:07:29;0.88;;;0.35;;
31308;SDS011;17936;52.446;10.840;2022-07-06T13:10:03;3.42;;;0.50;;
31308;SDS011;17936;52.446;10.840;2022-07-06T13:12:33;1.83;;;0.50;;
31308;SDS011;17936;52.446;10.840;2022-07-06T13:14:59;1.92;;;0.52;;
31308;SDS011;17936;52.446;10.840;2022-07-06T13:17:24;1.35;;;0.38;;
31308;SDS011;17936;52.446;10.840;2022-07-06T13:19:50;3.65;;;0.60;;
31308;SDS011;17936;52.446;10.840;2022-07-06T13:22:16;2.92;;;0.43;;
31308;SDS011;17936;52.446;10.840;2022-07-06T13:24:41;3.97;;;0.47;;
31308;SDS011;17936;52.446;10.840;2022-07-06T13:27:07;3.28;;;0.70;;
31308;SDS011;17936;52.446;10.840;2022-07-06T13:29:33;2.17;;;0.50;;
31308;SDS011;17936;52.446;10.840;2022-07-06T13:31:58;1.52;;;0.45;;
31308;SDS011;17936;52.446;10.840;2022-07-06T13:34:24;0.70;;;0.32;;
31308;SDS011;17936;52.446;10.840;2022-07-06T13:36:50;3.53;;;0.40;;
31308;SDS011;17936;52.446;10.840;2022-07-06T13:39:16;0.98;;;0.43;;
31308;SDS011;17936;52.446;10.840;2022-07-06T13:41:42;4.95;;;0.65;;
31308;SDS011;17936;52.446;10.840;2022-07-06T13:44:07;2.10;;;0.28;;
31308;SDS011;17936;52.446;10.840;2022-07-06T13:46:34;3.55;;;0.73;;
31308;SDS011;17936;52.446;10.840;2022-07-06T13:49:01;4.10;;;0.35;;
31308;SDS011;17936;52.446;10.840;2022-07-06T13:51:28;1.98;;;0.52;;
31308;SDS011;17936;52.446;10.840;2022-07-06T13:53:56;4.30;;;0.40;;
31308;SDS011;17936;52.446;10.840;2022-07-06T13:56:22;1.13;;;0.60;;
31308;SDS011;17936;52.446;10.840;2022-07-06T13:58:47;1.58;;;0.40;;
31308;SDS011;17936;52.446;10.840;2022-07-06T14:01:13;1.05;;;0.40;;
31308;SDS011;17936;52.446;10.840;2022-07-06T14:03:38;3.70;;;0.52;;
31308;SDS011;17936;52.446;10.840;2022-07-06T14:06:05;3.88;;;0.32;;
31308;SDS011;17936;52.446;10.840;2022-07-06T14:08:32;1.67;;;0.55;;
31308;SDS011;17936;52.446;10.840;2022-07-06T14:10:59;1.90;;;0.47;;
31308;SDS011;17936;52.446;10.840;2022-07-06T14:13:26;2.55;;;0.68;;
31308;SDS011;17936;52.446;10.840;2022-07-06T14:15:52;1.92;;;0.30;;
31308;SDS011;17936;52.446;10.840;2022-07-06T14:18:18;0.98;;;0.35;;
31308;SDS011;17936;52.446;10.840;2022-07-06T14:20:44;7.57;;;0.60;;
31308;SDS011;17936;52.446;10.840;2022-07-06T14:23:10;1.15;;;0.30;;
31308;SDS011;17936;52.446;10.840;2022-07-06T14:25:37;2.30;;;0.50;;
31308;SDS011;17936;52.446;10.840;2022-07-06T14:28:03;5.50;;;0.80;;
31308;SDS011;17936;52.446;10.840;2022-07-06T14:30:29;2.92;;;0.50;;
31308;SDS011;17936;52.446;10.840;2022-07-06T14:32:55;0.88;;;0.40;;
31308;SDS011;17936;52.446;10.840;2022-07-06T14:35:22;1.73;;;0.40;;